Time;durP1;ratioP1;P1;durP2;ratioP2;P2;SDS_P1;SDS_P2;PMS_P1;PMS_P2;Temp;Humidity;BMP_temperature;BMP_pressure;BME280_temperature;BME280_humidity;BME280_pressure;Samples;Min_cycle;Max_cycle;Signal;HPM_P1;HPM_P2
2021/12/05 00:40:21;;;;;;;3.47;1.12;;;;;;;;;;7488792;39;20231;-71
2021/12/05 01:17:11;;;;;;;7.03;1.37;;;;;;;;;;7488070;39;21602;-71
2021/12/05 01:22:19;;;;;;;5.25;1.37;;;;;;;;;;7488625;39;20222;-72
2021/12/05 01:33:26;;;;;;;4.00;1.40;;;;;;;;;;7488072;39;20455;-72
2021/12/05 02:48:20;;;;;;;4.17;1.57;;;;;;;;;;7488148;39;21764;-71
2021/12/05 02:58:52;;;;;;;4.35;1.65;;;;;;;;;;7488637;39;21468;-71
2021/12/05 03:03:57;;;;;;;3.42;1.20;;;;;;;;;;7488424;39;20179;-71
2021/12/05 03:09:03;;;;;;;3.15;1.10;;;;;;;;;;7488852;39;20380;-71
2021/12/05 03:14:08;;;;;;;4.07;1.40;;;;;;;;;;7488505;39;21107;-72
2021/12/05 03:19:13;;;;;;;4.55;1.47;;;;;;;;;;7488687;39;21451;-71
2021/12/05 03:24:19;;;;;;;5.42;1.30;;;;;;;;;;7488566;39;21477;-73
2021/12/05 03:29:25;;;;;;;4.53;1.50;;;;;;;;;;7489257;39;20259;-71
2021/12/05 03:34:30;;;;;;;3.45;1.20;;;;;;;;;;7488613;39;21451;-72
2021/12/05 03:39:35;;;;;;;4.17;1.80;;;;;;;;;;7489060;39;21519;-71
2021/12/05 03:44:40;;;;;;;3.83;1.35;;;;;;;;;;7488578;39;21506;-71
2021/12/05 03:49:45;;;;;;;3.90;1.20;;;;;;;;;;7489254;39;20230;-71
2021/12/05 03:54:50;;;;;;;3.50;1.37;;;;;;;;;;7488613;39;21933;-71
2021/12/05 03:59:55;;;;;;;3.50;1.40;;;;;;;;;;7488334;39;21186;-73
2021/12/05 04:04:59;;;;;;;3.83;1.47;;;;;;;;;;7489227;39;21454;-72
2021/12/05 04:10:04;;;;;;;5.45;1.30;;;;;;;;;;7488673;39;20191;-71
2021/12/05 04:15:11;;;;;;;3.20;1.20;;;;;;;;;;7489111;39;21679;-71
2021/12/05 04:20:16;;;;;;;3.33;1.40;;;;;;;;;;7488556;39;21027;-71
2021/12/05 04:25:22;;;;;;;4.08;1.37;;;;;;;;;;7488836;39;21423;-71
2021/12/05 04:30:27;;;;;;;4.60;1.40;;;;;;;;;;7488114;39;20213;-72
2021/12/05 04:35:32;;;;;;;4.55;1.40;;;;;;;;;;7488429;39;21411;-71
2021/12/05 04:40:36;;;;;;;4.95;1.50;;;;;;;;;;7488931;39;21469;-70
2021/12/05 04:45:42;;;;;;;3.83;1.50;;;;;;;;;;7488338;39;21532;-72
2021/12/05 04:50:47;;;;;;;6.70;1.35;;;;;;;;;;7488862;39;20191;-71
2021/12/05 04:55:51;;;;;;;6.07;1.57;;;;;;;;;;7488098;39;21493;-71
2021/12/05 05:00:57;;;;;;;5.17;1.72;;;;;;;;;;7488774;39;20283;-71
2021/12/05 05:11:28;;;;;;;12.68;1.95;;;;;;;;;;7488309;39;21030;-70
2021/12/05 05:16:33;;;;;;;5.10;1.40;;;;;;;;;;7488258;39;21472;-71
2021/12/05 05:53:49;;;;;;;7.80;1.87;;;;;;;;;;7489552;39;21368;-70
2021/12/05 05:59:29;;;;;;;11.00;2.30;;;;;;;;;;7488949;39;21426;-72
2021/12/05 06:04:00;;;;;;;6.55;2.25;;;;;;;;;;7487864;39;21515;-71
2021/12/05 06:09:05;;;;;;;11.88;2.02;;;;;;;;;;7489054;39;21938;-70
2021/12/05 06:14:10;;;;;;;5.53;1.80;;;;;;;;;;7488254;39;21209;-71
2021/12/05 06:19:15;;;;;;;16.57;3.08;;;;;;;;;;7488802;39;20964;-72
2021/12/05 06:24:23;;;;;;;5.50;2.30;;;;;;;;;;7489160;39;21502;-70
2021/12/05 06:29:32;;;;;;;6.33;1.75;;;;;;;;;;7489739;39;20989;-71
2021/12/05 06:50:47;;;;;;;7.25;2.00;;;;;;;;;;7489544;39;20223;-71
2021/12/05 06:55:52;;;;;;;6.78;2.20;;;;;;;;;;7489520;39;21475;-71
2021/12/05 07:00:56;;;;;;;8.68;1.85;;;;;;;;;;7488072;39;21527;-70
2021/12/05 07:06:35;;;;;;;9.03;2.27;;;;;;;;;;7487876;39;21455;-70
2021/12/05 07:43:04;;;;;;;5.47;1.20;;;;;;;;;;7489242;39;20177;-71
2021/12/05 07:48:13;;;;;;;4.47;1.30;;;;;;;;;;7486752;39;21533;-71
2021/12/05 07:53:55;;;;;;;10.53;1.90;;;;;;;;;;7485296;39;59896;-71
2021/12/05 08:14:42;;;;;;;6.35;1.75;;;;;;;;;;7488562;39;21973;-70
2021/12/05 08:19:43;;;;;;;5.95;1.77;;;;;;;;;;7487556;39;20355;-71
2021/12/05 08:24:50;;;;;;;5.00;1.87;;;;;;;;;;7487373;39;21570;-71
2021/12/05 08:29:58;;;;;;;7.33;1.90;;;;;;;;;;7488750;39;20222;-71
2021/12/05 09:24:03;;;;;;;10.82;2.08;;;;;;;;;;7479802;39;20379;-67
2021/12/05 10:40:18;;;;;;;5.83;1.80;;;;;;;;;;7486249;39;22074;-73
2021/12/05 10:45:23;;;;;;;6.50;1.80;;;;;;;;;;7486223;39;20823;-66
2021/12/05 10:50:48;;;;;;;6.55;1.72;;;;;;;;;;7487232;39;20250;-74
2021/12/05 10:56:13;;;;;;;8.93;2.60;;;;;;;;;;7488045;39;21655;-69
2021/12/05 11:01:37;;;;;;;7.00;2.42;;;;;;;;;;7488046;39;20746;-69
2021/12/05 11:07:02;;;;;;;7.90;2.20;;;;;;;;;;7489060;39;21457;-78
2021/12/05 11:12:09;;;;;;;5.78;1.90;;;;;;;;;;7487372;39;21497;-70
2021/12/05 11:17:15;;;;;;;6.42;1.80;;;;;;;;;;7487741;39;21700;-71
2021/12/05 11:22:21;;;;;;;7.60;1.57;;;;;;;;;;7489097;39;21179;-75
2021/12/05 11:27:46;;;;;;;4.28;1.70;;;;;;;;;;7487930;39;21466;-76
2021/12/05 11:32:53;;;;;;;5.63;1.70;;;;;;;;;;7488082;39;20163;-69
2021/12/05 11:38:18;;;;;;;6.35;1.70;;;;;;;;;;7487388;39;21443;-70
2021/12/05 11:43:25;;;;;;;9.55;1.80;;;;;;;;;;7487943;39;20464;-76
2021/12/05 11:48:31;;;;;;;7.67;2.02;;;;;;;;;;7488458;39;21127;-71
2021/12/05 11:53:37;;;;;;;4.75;1.70;;;;;;;;;;7487489;39;21522;-76
2021/12/05 11:58:42;;;;;;;5.87;1.90;;;;;;;;;;7487648;39;21501;-75
2021/12/05 12:03:47;;;;;;;5.03;1.95;;;;;;;;;;7488664;39;20188;-68
2021/12/05 12:08:52;;;;;;;8.28;2.10;;;;;;;;;;7487349;39;21475;-69
2021/12/05 12:13:57;;;;;;;8.25;1.90;;;;;;;;;;7488758;39;21613;-76
2021/12/05 12:19:06;;;;;;;15.48;2.00;;;;;;;;;;7487906;39;20236;-68
2021/12/05 12:24:12;;;;;;;8.63;1.60;;;;;;;;;;7487688;39;21522;-68
2021/12/05 12:29:17;;;;;;;4.45;1.60;;;;;;;;;;7487567;39;21471;-76
2021/12/05 12:34:24;;;;;;;5.67;2.00;;;;;;;;;;7487456;39;21483;-76
2021/12/05 12:39:49;;;;;;;5.17;2.00;;;;;;;;;;7488324;39;20231;-68
2021/12/05 12:45:14;;;;;;;7.40;1.77;;;;;;;;;;7487611;39;21440;-75
2021/12/05 12:50:38;;;;;;;7.50;2.27;;;;;;;;;;7488116;39;20166;-75
2021/12/05 12:55:45;;;;;;;4.67;1.70;;;;;;;;;;7487533;39;21462;-68
2021/12/05 13:00:50;;;;;;;6.22;2.22;;;;;;;;;;7488537;39;20232;-69
2021/12/05 13:11:22;;;;;;;4.50;1.55;;;;;;;;;;7488053;39;20258;-76
2021/12/05 13:16:31;;;;;;;6.50;1.70;;;;;;;;;;7488187;39;21677;-76
2021/12/05 13:21:38;;;;;;;5.65;2.02;;;;;;;;;;7487500;39;21179;-69
2021/12/05 13:26:44;;;;;;;8.60;1.80;;;;;;;;;;7488040;39;21383;-76
2021/12/05 13:31:50;;;;;;;7.80;2.90;;;;;;;;;;7487695;39;20448;-72
2021/12/05 13:37:16;;;;;;;8.25;2.60;;;;;;;;;;7487401;39;21449;-77
2021/12/05 13:42:22;;;;;;;12.37;2.60;;;;;;;;;;7488286;39;20252;-69
2021/12/05 13:47:31;;;;;;;8.63;2.50;;;;;;;;;;7487186;39;21499;-69
2021/12/05 13:52:39;;;;;;;6.87;2.75;;;;;;;;;;7488376;39;20193;-68
2021/12/05 13:57:45;;;;;;;8.75;2.20;;;;;;;;;;7487809;39;21487;-68
2021/12/05 14:03:10;;;;;;;9.60;2.77;;;;;;;;;;7488996;39;20218;-68
2021/12/05 14:08:15;;;;;;;8.50;2.63;;;;;;;;;;7488159;39;21509;-68
2021/12/05 14:13:22;;;;;;;8.08;2.72;;;;;;;;;;7488027;39;20211;-68
2021/12/05 14:18:26;;;;;;;9.35;3.30;;;;;;;;;;7488296;39;21604;-76
2021/12/05 14:23:31;;;;;;;14.65;3.37;;;;;;;;;;7487972;39;20210;-76
2021/12/05 14:28:36;;;;;;;9.03;2.98;;;;;;;;;;7488471;39;21457;-68
2021/12/05 14:34:01;;;;;;;11.43;2.60;;;;;;;;;;7488189;39;20283;-76
2021/12/05 14:39:26;;;;;;;10.13;2.83;;;;;;;;;;7488222;39;21482;-68
2021/12/05 14:44:32;;;;;;;7.67;2.83;;;;;;;;;;7487834;39;20536;-68
2021/12/05 14:49:57;;;;;;;13.68;3.00;;;;;;;;;;7488724;39;21836;-76
2021/12/05 14:55:04;;;;;;;7.30;2.80;;;;;;;;;;7488879;39;20904;-69
2021/12/05 15:00:10;;;;;;;8.80;2.33;;;;;;;;;;7486385;39;20255;-65
2021/12/05 15:05:17;;;;;;;6.65;2.50;;;;;;;;;;7487064;39;21517;-75
2021/12/05 15:10:22;;;;;;;6.05;1.98;;;;;;;;;;7489042;39;20232;-76
2021/12/05 15:15:28;;;;;;;7.33;2.33;;;;;;;;;;7485512;39;21474;-73
2021/12/05 15:20:36;;;;;;;8.23;2.65;;;;;;;;;;7486194;39;20193;-74
2021/12/05 15:25:42;;;;;;;8.07;2.07;;;;;;;;;;7488026;39;21560;-74
2021/12/05 15:30:48;;;;;;;6.75;2.30;;;;;;;;;;7487827;39;20211;-74
2021/12/05 15:35:53;;;;;;;7.40;2.30;;;;;;;;;;7485675;39;21909;-75
2021/12/05 15:41:18;;;;;;;6.25;2.72;;;;;;;;;;7487735;39;20942;-69
2021/12/05 15:46:23;;;;;;;6.70;2.40;;;;;;;;;;7488440;39;21498;-67
2021/12/05 15:51:28;;;;;;;6.43;2.70;;;;;;;;;;7488372;39;20162;-66
2021/12/05 15:56:33;;;;;;;10.78;2.85;;;;;;;;;;7488334;39;21435;-74
2021/12/05 16:01:38;;;;;;;11.43;3.60;;;;;;;;;;7488244;39;21465;-73
2021/12/05 16:06:43;;;;;;;17.45;4.25;;;;;;;;;;7486404;39;21543;-69
2021/12/05 16:11:50;;;;;;;13.30;3.12;;;;;;;;;;7488496;39;20266;-73
2021/12/05 16:16:55;;;;;;;12.73;2.97;;;;;;;;;;7488314;39;21647;-75
2021/12/05 16:22:01;;;;;;;13.32;3.05;;;;;;;;;;7488518;39;20868;-66
2021/12/05 16:27:06;;;;;;;7.47;2.70;;;;;;;;;;7488066;39;21495;-66
2021/12/05 16:32:12;;;;;;;8.05;2.90;;;;;;;;;;7488421;39;20193;-73
2021/12/05 16:37:17;;;;;;;8.75;2.77;;;;;;;;;;7487138;39;21440;-65
2021/12/05 16:42:23;;;;;;;11.20;2.80;;;;;;;;;;7488051;39;20241;-74
2021/12/05 16:47:49;;;;;;;9.48;2.67;;;;;;;;;;7486368;39;21192;-74
2021/12/05 16:52:54;;;;;;;12.13;2.70;;;;;;;;;;7484783;39;21488;-68
2021/12/05 17:03:28;;;;;;;14.47;2.77;;;;;;;;;;7487531;39;21445;-67
2021/12/05 17:08:34;;;;;;;10.90;2.40;;;;;;;;;;7485453;39;21444;-73
2021/12/05 17:13:41;;;;;;;7.87;2.65;;;;;;;;;;7488224;39;21487;-76
2021/12/05 17:18:48;;;;;;;7.42;2.50;;;;;;;;;;7485800;39;21501;-66
2021/12/05 17:24:12;;;;;;;9.48;2.37;;;;;;;;;;7484694;39;20301;-78
2021/12/05 17:29:37;;;;;;;11.57;3.08;;;;;;;;;;7487596;39;21466;-71
2021/12/05 17:35:02;;;;;;;9.63;2.70;;;;;;;;;;7487739;39;21647;-73
2021/12/05 17:40:07;;;;;;;10.88;3.27;;;;;;;;;;7488631;39;21501;-71
2021/12/05 17:45:13;;;;;;;7.17;2.60;;;;;;;;;;7487506;39;21805;-71
2021/12/05 17:50:20;;;;;;;13.95;2.85;;;;;;;;;;7488592;39;21126;-71
2021/12/05 17:55:27;;;;;;;9.43;3.15;;;;;;;;;;7488843;39;21411;-73
2021/12/05 18:05:58;;;;;;;9.30;2.62;;;;;;;;;;7487287;39;21488;-72
2021/12/05 18:11:10;;;;;;;11.08;3.55;;;;;;;;;;7488132;39;20257;-72
2021/12/05 18:22:09;;;;;;;9.15;3.77;;;;;;;;;;7487147;39;20966;-76
2021/12/05 18:26:43;;;;;;;11.97;3.97;;;;;;;;;;7487797;39;21500;-76
2021/12/05 18:31:49;;;;;;;8.68;3.58;;;;;;;;;;7487789;39;20266;-76
2021/12/05 18:36:55;;;;;;;10.38;3.60;;;;;;;;;;7486068;39;21483;-76
2021/12/05 18:42:04;;;;;;;9.83;4.00;;;;;;;;;;7487516;39;20249;-74
2021/12/05 18:47:08;;;;;;;9.45;3.45;;;;;;;;;;7485367;39;21932;-70
2021/12/05 18:52:13;;;;;;;7.77;3.40;;;;;;;;;;7487564;39;21183;-69
2021/12/05 18:57:20;;;;;;;9.85;3.30;;;;;;;;;;7487614;39;21427;-69
2021/12/05 19:13:15;;;;;;;10.38;3.67;;;;;;;;;;7487171;39;20228;-72
2021/12/05 19:18:20;;;;;;;11.10;3.43;;;;;;;;;;7483535;39;21522;-69
2021/12/05 19:23:26;;;;;;;9.25;3.50;;;;;;;;;;7483620;39;20402;-69
2021/12/05 19:28:31;;;;;;;11.45;4.10;;;;;;;;;;7485741;39;21440;-69
2021/12/05 19:33:36;;;;;;;12.73;4.05;;;;;;;;;;7484163;39;20449;-70
2021/12/05 19:38:41;;;;;;;16.93;4.17;;;;;;;;;;7485120;39;21431;-69
2021/12/05 19:43:46;;;;;;;13.43;3.97;;;;;;;;;;7483312;39;20579;-69
2021/12/05 19:48:51;;;;;;;11.35;3.90;;;;;;;;;;7481676;39;21514;-69
2021/12/05 19:53:57;;;;;;;10.18;3.22;;;;;;;;;;7484693;39;21483;-69
2021/12/05 19:59:02;;;;;;;10.05;3.58;;;;;;;;;;7486398;39;21462;-74
2021/12/05 20:04:07;;;;;;;11.95;3.80;;;;;;;;;;7484432;39;20179;-73
2021/12/05 20:09:12;;;;;;;9.57;3.80;;;;;;;;;;7486668;39;21505;-73
2021/12/05 20:14:18;;;;;;;11.57;3.67;;;;;;;;;;7487322;39;21488;-73
2021/12/05 20:19:22;;;;;;;10.08;4.15;;;;;;;;;;7485382;39;21002;-73
2021/12/05 20:24:27;;;;;;;10.95;3.42;;;;;;;;;;7486118;39;21483;-69
2021/12/05 20:29:33;;;;;;;12.60;3.22;;;;;;;;;;7487448;39;20188;-72
2021/12/05 20:34:38;;;;;;;9.53;3.40;;;;;;;;;;7487203;39;21474;-73
2021/12/05 20:39:43;;;;;;;6.92;2.80;;;;;;;;;;7486321;39;20216;-71
2021/12/05 20:44:47;;;;;;;9.18;3.47;;;;;;;;;;7486863;39;21471;-73
2021/12/05 20:49:52;;;;;;;8.00;3.05;;;;;;;;;;7487647;39;20223;-68
2021/12/05 20:54:57;;;;;;;11.63;3.70;;;;;;;;;;7488064;39;21492;-68
2021/12/05 21:00:04;;;;;;;9.20;3.27;;;;;;;;;;7487355;39;20232;-71
2021/12/05 21:05:09;;;;;;;10.95;3.50;;;;;;;;;;7487426;39;21989;-68
2021/12/05 21:10:14;;;;;;;10.53;3.77;;;;;;;;;;7487469;39;21652;-68
2021/12/05 21:15:19;;;;;;;7.22;3.08;;;;;;;;;;7487355;39;21482;-68
2021/12/05 21:20:24;;;;;;;11.50;3.65;;;;;;;;;;7488139;39;21414;-71
2021/12/05 21:25:29;;;;;;;8.63;3.40;;;;;;;;;;7486808;39;21492;-71
2021/12/05 21:30:34;;;;;;;10.13;4.10;;;;;;;;;;7488087;39;20228;-70
2021/12/05 21:35:39;;;;;;;8.35;3.30;;;;;;;;;;7487064;39;21478;-71
2021/12/05 21:41:04;;;;;;;14.28;3.85;;;;;;;;;;7488067;39;20180;-71
2021/12/05 21:46:10;;;;;;;10.75;3.87;;;;;;;;;;7486677;39;21513;-68
2021/12/05 21:51:16;;;;;;;8.03;3.23;;;;;;;;;;7486599;39;21743;-68
2021/12/05 21:56:21;;;;;;;10.53;3.17;;;;;;;;;;7487534;39;21278;-70
2021/12/05 22:01:26;;;;;;;7.12;3.00;;;;;;;;;;7486377;39;20215;-71
2021/12/05 22:06:31;;;;;;;8.28;3.20;;;;;;;;;;7488197;39;21413;-68
2021/12/05 22:11:36;;;;;;;7.72;3.05;;;;;;;;;;7487270;39;20188;-68
2021/12/05 22:16:41;;;;;;;9.87;3.80;;;;;;;;;;7488762;39;21448;-68
2021/12/05 22:21:46;;;;;;;11.15;3.45;;;;;;;;;;7488303;39;21475;-71
2021/12/05 22:26:51;;;;;;;10.10;3.08;;;;;;;;;;7488373;39;21444;-68
2021/12/05 22:31:56;;;;;;;7.85;3.15;;;;;;;;;;7489488;39;20219;-71
2021/12/05 22:37:01;;;;;;;7.95;2.92;;;;;;;;;;7488188;39;21557;-68
2021/12/05 22:42:06;;;;;;;8.90;3.20;;;;;;;;;;7489053;39;20482;-71
2021/12/05 22:47:11;;;;;;;9.53;3.08;;;;;;;;;;7488236;39;21147;-71
2021/12/05 22:52:16;;;;;;;12.28;3.00;;;;;;;;;;7488601;39;20176;-68
2021/12/05 22:57:21;;;;;;;9.35;3.15;;;;;;;;;;7487826;39;21926;-68
2021/12/05 23:02:25;;;;;;;8.25;2.90;;;;;;;;;;7488259;39;20941;-71
2021/12/05 23:07:30;;;;;;;7.47;3.00;;;;;;;;;;7487796;39;21512;-68
2021/12/05 23:12:35;;;;;;;9.05;3.08;;;;;;;;;;7487860;39;20175;-68
2021/12/05 23:17:39;;;;;;;7.72;3.02;;;;;;;;;;7488829;39;21865;-71
2021/12/05 23:22:44;;;;;;;6.53;2.75;;;;;;;;;;7487258;39;21487;-68
2021/12/05 23:27:50;;;;;;;8.73;3.30;;;;;;;;;;7488820;39;21531;-68
2021/12/05 23:32:55;;;;;;;11.37;3.50;;;;;;;;;;7487270;39;20322;-68
2021/12/05 23:38:02;;;;;;;8.88;2.98;;;;;;;;;;7488337;39;21827;-71
2021/12/05 23:43:07;;;;;;;7.62;2.52;;;;;;;;;;7487190;39;20241;-71
2021/12/05 23:48:14;;;;;;;10.88;2.80;;;;;;;;;;7487488;39;21490;-68
2021/12/05 23:53:21;;;;;;;9.23;3.17;;;;;;;;;;7487855;39;20223;-68
2021/12/05 23:58:25;;;;;;;16.30;3.30;;;;;;;;;;7487689;39;21474;-71
